Time;durP1;ratioP1;P1;durP2;ratioP2;P2;SDS_P1;SDS_P2;PMS_P1;PMS_P2;Temp;Humidity;BMP_temperature;BMP_pressure;BME280_temperature;BME280_humidity;BME280_pressure;Samples;Min_cycle;Max_cycle;Signal;HPM_P1;HPM_P2
2024/04/10 00:09:29;;;;;;;18.00;4.60;;;;;;;16.83;57.02;98289.23;434144;1256;108853;-41
2024/04/10 00:19:36;;;;;;;20.20;5.80;;;;;;;16.77;57.88;98300.16;434059;1256;100610;-43
2024/04/10 00:29:46;;;;;;;19.30;6.60;;;;;;;16.67;58.08;98309.99;433937;1260;108778;-39
2024/04/10 00:50:13;;;;;;;15.60;7.70;;;;;;;16.53;60.55;98336.36;434036;1260;112523;-40
2024/04/10 01:00:18;;;;;;;26.40;6.30;;;;;;;16.57;61.89;98339.73;434004;1269;107052;-41
2024/04/10 01:10:24;;;;;;;24.80;8.30;;;;;;;16.55;65.41;98348.32;434805;1251;99717;-38
2024/04/10 01:20:31;;;;;;;21.00;6.50;;;;;;;16.50;67.87;98360.98;434898;1253;108510;-41
2024/04/10 01:30:37;;;;;;;23.00;6.40;;;;;;;16.42;68.27;98387.77;434934;1255;100661;-41
2024/04/10 01:40:44;;;;;;;34.80;7.80;;;;;;;16.19;69.05;98407.59;434940;1256;113030;-41
2024/04/10 01:50:51;;;;;;;14.00;5.40;;;;;;;15.95;69.54;98423.17;434949;1253;106680;-41
2024/04/10 02:00:57;;;;;;;19.00;6.10;;;;;;;15.82;69.70;98435.72;434960;1255;100648;-40
2024/04/10 02:21:25;;;;;;;17.70;5.50;;;;;;;15.85;70.37;98467.82;434825;1256;99398;-41
2024/04/10 02:31:32;;;;;;;20.50;6.80;;;;;;;15.91;70.63;98475.92;435039;1253;112353;-40
2024/04/10 02:41:39;;;;;;;22.30;6.40;;;;;;;15.87;71.21;98490.91;435065;1256;107818;-40
2024/04/10 02:51:45;;;;;;;14.60;6.10;;;;;;;15.85;71.70;98503.54;434839;1255;99350;-41
2024/04/10 03:01:52;;;;;;;18.30;7.20;;;;;;;15.81;72.10;98520.06;434869;1256;108128;-41
2024/04/10 03:11:59;;;;;;;12.70;7.00;;;;;;;15.77;71.69;98540.43;434763;1254;100602;-42
2024/04/10 03:22:05;;;;;;;24.40;11.60;;;;;;;15.76;71.86;98553.28;434856;1256;113394;-41
2024/04/10 03:32:12;;;;;;;18.20;10.00;;;;;;;15.62;72.78;98564.56;435090;1255;109077;-40
2024/04/10 03:42:19;;;;;;;16.10;5.00;;;;;;;15.45;72.54;98587.83;434964;1253;100577;-40
2024/04/10 03:52:26;;;;;;;7.00;3.20;;;;;;;15.03;71.72;98618.50;435091;1256;107808;-41
2024/04/10 04:02:34;;;;;;;8.30;2.90;;;;;;;14.55;71.45;98656.73;434844;1255;100651;-40
2024/04/10 04:12:40;;;;;;;10.90;3.10;;;;;;;14.22;71.27;98688.25;434894;1256;112806;-41
2024/04/10 04:22:47;;;;;;;11.90;3.70;;;;;;;13.74;70.52;98724.46;434963;1256;107736;-41
2024/04/10 04:53:07;;;;;;;12.40;3.60;;;;;;;12.75;70.12;98811.34;434930;1256;100630;-40
2024/04/10 05:13:21;;;;;;;11.20;3.10;;;;;;;12.39;70.12;98859.11;434977;1257;107637;-40
2024/04/10 05:23:28;;;;;;;6.00;3.10;;;;;;;12.35;70.28;98876.00;434823;1266;100680;-41
2024/04/10 05:33:34;;;;;;;6.20;3.20;;;;;;;12.23;70.13;98898.92;435063;1256;108227;-40
2024/04/10 05:43:42;;;;;;;7.30;2.40;;;;;;;12.23;69.97;98909.70;434460;1256;550012;-40
2024/04/10 05:53:50;;;;;;;8.10;3.30;;;;;;;12.35;69.61;98930.41;434898;1257;112958;-41
2024/04/10 06:03:57;;;;;;;13.60;3.50;;;;;;;12.31;69.29;98943.86;434874;1266;109290;-40
2024/04/10 06:14:04;;;;;;;10.10;3.50;;;;;;;12.28;69.02;98958.84;434815;1255;99374;-41
2024/04/10 06:34:17;;;;;;;5.60;3.10;;;;;;;12.44;68.08;98976.79;434923;1256;99701;-42
2024/04/10 06:44:24;;;;;;;7.50;3.50;;;;;;;12.43;67.38;99004.05;435060;1257;113071;-41
2024/04/10 06:54:31;;;;;;;15.90;2.90;;;;;;;12.45;66.59;99013.00;434905;1257;107526;-41
2024/04/10 07:04:37;;;;;;;11.70;2.80;;;;;;;12.43;65.92;99028.74;434907;1255;99282;-41
2024/04/10 07:14:44;;;;;;;11.70;2.80;;;;;;;12.34;65.39;99041.67;434970;1256;107796;-41
2024/04/10 07:24:52;;;;;;;11.50;2.90;;;;;;;12.23;65.39;99065.02;434977;1267;100686;-39
2024/04/10 07:34:59;;;;;;;8.40;3.40;;;;;;;12.20;65.72;99079.89;435050;1263;112044;-40
2024/04/10 07:45:05;;;;;;;6.40;3.50;;;;;;;12.19;65.94;99095.35;434994;1257;108269;-40
2024/04/10 07:55:11;;;;;;;8.90;3.00;;;;;;;12.24;65.91;99118.89;435043;1254;99730;-41
2024/04/10 08:05:16;;;;;;;10.90;2.10;;;;;;;12.37;65.93;99135.50;434943;1254;107856;-41
2024/04/10 08:15:36;;;;;;;7.70;4.60;;;;;;;12.58;65.88;99140.34;435112;1258;100610;-42
2024/04/10 08:35:52;;;;;;;5.70;1.60;;;;;;;12.74;65.71;99164.77;434955;1257;108606;-40
2024/04/10 08:45:58;;;;;;;6.10;2.10;;;;;;;12.72;66.01;99164.76;435177;1254;100603;-41
2024/04/10 08:56:03;;;;;;;8.10;2.20;;;;;;;12.94;66.13;99174.23;435111;1257;108700;-40
2024/04/10 09:06:24;;;;;;;9.60;2.00;;;;;;;13.08;66.19;99196.22;435075;1257;100680;-40
2024/04/10 09:16:32;;;;;;;5.00;1.70;;;;;;;13.38;66.08;99210.76;435040;1257;113679;-40
2024/04/10 09:26:41;;;;;;;7.00;2.30;;;;;;;13.39;65.76;99236.21;435181;1258;106661;-41
2024/04/10 09:36:49;;;;;;;17.80;2.80;;;;;;;13.40;65.42;99259.41;435150;1254;100520;-40
2024/04/10 09:57:06;;;;;;;5.50;2.50;;;;;;;13.34;64.66;99280.52;435070;1264;100592;-41
2024/04/10 10:07:20;;;;;;;4.30;1.50;;;;;;;13.13;64.63;99304.60;434981;1257;112190;-41
2024/04/10 10:37:38;;;;;;;4.70;1.80;;;;;;;12.62;65.27;99348.19;435155;1256;107520;-41
2024/04/10 10:47:46;;;;;;;7.40;2.60;;;;;;;12.63;65.21;99361.89;435043;1257;100642;-41
2024/04/10 10:58:00;;;;;;;8.20;2.70;;;;;;;12.79;65.31;99380.20;435166;1267;112500;-41
2024/04/10 11:08:07;;;;;;;5.80;2.30;;;;;;;12.95;65.18;99394.63;435018;1257;109385;-40
2024/04/10 11:28:21;;;;;;;6.90;2.40;;;;;;;13.42;64.95;99411.73;435059;1253;107068;-40
2024/04/10 11:38:29;;;;;;;10.40;2.80;;;;;;;13.47;64.76;99429.74;435038;1257;100585;-40
2024/04/10 11:48:36;;;;;;;32.10;5.90;;;;;;;13.29;64.31;99443.91;435184;1252;112849;-40
2024/04/10 11:58:43;;;;;;;5.90;3.60;;;;;;;13.11;64.68;99472.27;435041;1256;109231;-40
2024/04/10 12:08:50;;;;;;;5.70;2.90;;;;;;;12.90;64.76;99487.61;435132;1253;100180;-41
2024/04/10 12:18:56;;;;;;;16.00;4.30;;;;;;;12.91;65.15;99495.89;435053;1255;108699;-41
2024/04/10 12:29:18;;;;;;;8.80;3.30;;;;;;;13.06;65.18;99496.43;434907;1253;100581;-40
2024/04/10 12:39:25;;;;;;;4.20;2.70;;;;;;;13.07;64.93;99502.27;435190;1257;113112;-39
2024/04/10 12:49:34;;;;;;;5.60;3.50;;;;;;;13.16;65.04;99502.10;435009;1256;106889;-40
2024/04/10 12:59:40;;;;;;;7.50;4.20;;;;;;;13.10;64.95;99495.84;435219;1253;99879;-40
2024/04/10 13:09:48;;;;;;;7.60;4.10;;;;;;;12.98;65.16;99493.71;435190;1256;107639;-40
2024/04/10 13:19:55;;;;;;;4.10;2.90;;;;;;;12.96;64.86;99494.72;435028;1256;99346;-41
2024/04/10 13:30:01;;;;;;;5.50;2.50;;;;;;;12.85;64.64;99500.86;434979;1256;113666;-41
2024/04/10 13:40:08;;;;;;;8.50;3.80;;;;;;;12.78;64.52;99521.77;435214;1252;108161;-41
2024/04/10 13:50:14;;;;;;;6.70;1.80;;;;;;;12.80;64.37;99524.61;435065;1252;100606;-41
2024/04/10 14:00:19;;;;;;;5.70;3.00;;;;;;;12.78;64.38;99528.09;435064;1256;107701;-39
2024/04/10 14:10:26;;;;;;;10.70;2.90;;;;;;;12.79;64.47;99540.41;435072;1256;99347;-41
2024/04/10 14:20:33;;;;;;;11.30;3.20;;;;;;;12.85;64.43;99541.32;435087;1256;113559;-41
2024/04/10 14:30:39;;;;;;;28.70;5.00;;;;;;;12.94;64.54;99543.58;434978;1256;107984;-39
2024/04/10 14:40:46;;;;;;;6.10;3.20;;;;;;;13.04;64.52;99549.11;435119;1255;100578;-41
2024/04/10 14:50:56;;;;;;;5.10;3.30;;;;;;;12.91;64.36;99555.38;435193;1257;107344;-41
2024/04/10 15:01:11;;;;;;;10.40;2.60;;;;;;;12.82;64.43;99565.65;435120;1253;100674;-40
2024/04/10 15:11:22;;;;;;;28.40;3.60;;;;;;;12.84;64.32;99571.97;434882;1256;113584;-42
2024/04/10 15:21:29;;;;;;;9.40;4.70;;;;;;;12.84;64.35;99581.11;435037;1253;109943;-40
2024/04/10 15:31:36;;;;;;;5.80;2.60;;;;;;;12.84;64.25;99589.69;435072;1255;100600;-41
2024/04/10 15:52:05;;;;;;;7.40;3.20;;;;;;;12.49;63.95;99601.54;435023;1256;100602;-44
2024/04/10 16:02:29;;;;;;;17.30;3.60;;;;;;;12.33;63.93;99615.60;435104;1255;113058;-41
2024/04/10 16:12:36;;;;;;;35.50;5.10;;;;;;;12.13;64.01;99633.54;434870;1255;110451;-41
2024/04/10 16:22:44;;;;;;;4.70;3.30;;;;;;;11.98;64.12;99638.11;435131;1252;99283;-41
2024/04/10 16:32:50;;;;;;;9.70;3.90;;;;;;;11.87;64.56;99640.52;435064;1253;108717;-40
2024/04/10 16:42:57;;;;;;;11.00;3.90;;;;;;;11.85;65.15;99656.12;434989;1252;99419;-40
2024/04/10 16:53:04;;;;;;;10.20;4.30;;;;;;;11.80;65.75;99669.86;435062;1255;114250;-40
2024/04/10 17:03:11;;;;;;;8.90;5.10;;;;;;;11.71;65.84;99680.89;434983;1256;107459;-40
2024/04/10 17:13:18;;;;;;;7.60;3.80;;;;;;;11.59;66.13;99697.56;435104;1256;99375;-40
2024/04/10 17:23:25;;;;;;;10.90;3.60;;;;;;;11.55;66.23;99712.41;435072;1255;108596;-41
2024/04/10 17:33:33;;;;;;;15.00;4.20;;;;;;;11.54;66.39;99724.71;434933;1256;100609;-39
2024/04/10 17:53:47;;;;;;;8.60;4.80;;;;;;;11.42;66.74;99768.60;435125;1256;105882;-40
2024/04/10 18:13:59;;;;;;;7.00;4.00;;;;;;;11.27;67.29;99799.23;434964;1253;107985;-39
2024/04/10 18:24:07;;;;;;;7.80;4.30;;;;;;;11.30;67.25;99817.71;435103;1253;100559;-40
2024/04/10 18:34:15;;;;;;;10.20;5.20;;;;;;;11.34;67.47;99832.66;435044;1252;112662;-40
2024/04/10 18:44:22;;;;;;;12.90;6.80;;;;;;;11.39;67.75;99844.65;435045;1255;108293;-42
2024/04/10 18:54:31;;;;;;;12.60;6.60;;;;;;;11.32;67.84;99852.20;435098;1252;100059;-41
2024/04/10 19:04:38;;;;;;;17.50;7.70;;;;;;;11.22;68.18;99855.85;435086;1255;108105;-39
2024/04/10 19:14:45;;;;;;;13.90;7.30;;;;;;;11.13;68.31;99871.92;435163;1256;100575;-41
2024/04/10 19:24:53;;;;;;;17.90;9.00;;;;;;;11.14;68.47;99877.60;435040;1255;113872;-41
2024/04/10 19:34:59;;;;;;;14.90;8.10;;;;;;;11.19;68.64;99881.15;434862;1256;107691;-40
2024/04/10 19:45:08;;;;;;;23.40;10.70;;;;;;;11.21;68.92;99887.33;435042;1254;100693;-41
2024/04/10 19:55:18;;;;;;;15.70;8.80;;;;;;;11.22;69.27;99894.10;435032;1255;108384;-41
2024/04/10 20:05:26;;;;;;;16.00;9.00;;;;;;;11.14;69.34;99897.71;435040;1256;99385;-40
2024/04/10 20:25:39;;;;;;;18.30;9.80;;;;;;;11.13;69.51;99904.56;434951;1253;106759;-41
2024/04/10 20:35:53;;;;;;;20.80;8.90;;;;;;;11.14;69.77;99906.96;435077;1253;100704;-41
2024/04/10 20:46:03;;;;;;;13.30;8.70;;;;;;;11.07;69.99;99902.38;434928;1255;108153;-41
2024/04/10 20:56:15;;;;;;;13.50;8.50;;;;;;;10.99;70.33;99910.23;435071;1256;99697;-40
2024/04/10 22:29:19;;;;;;;12.90;8.10;;;;;;;11.16;71.23;100022.63;434613;1257;109660;-41
2024/04/10 22:39:26;;;;;;;13.90;9.30;;;;;;;11.02;71.29;100026.77;435009;1256;100599;-40
2024/04/10 22:49:32;;;;;;;11.40;7.90;;;;;;;11.01;71.40;100044.11;434952;1255;113261;-42
2024/04/10 22:59:39;;;;;;;15.20;8.50;;;;;;;11.05;71.48;100050.48;434844;1256;107608;-42
2024/04/10 23:09:46;;;;;;;13.40;8.40;;;;;;;11.10;71.71;100056.23;435117;1254;100590;-39
2024/04/10 23:19:52;;;;;;;13.90;10.00;;;;;;;11.08;71.81;100062.79;435009;1255;107261;-40
2024/04/10 23:29:59;;;;;;;16.00;10.30;;;;;;;10.97;71.92;100059.22;434964;1256;100594;-41
2024/04/10 23:40:08;;;;;;;20.10;10.60;;;;;;;10.95;71.99;100063.03;434894;1256;113056;-39
2024/04/10 23:50:16;;;;;;;24.70;11.10;;;;;;;10.99;72.06;100059.17;434906;1255;107199;-41
